Aérodrome :
LOGIN :

S'inscrire | Disclaimer

   EN    FR    IT 

 










Légende :    VFR   VFR Marginal   IFR   IFR Intensif   IFR Très Intensif
Visi : 
Plafond : 
>= 8 km
>= 3000ft
5 à 8 km
1000 à 3000 ft
1500m à 5 km
500 à 1000 ft
800 à 1500m
200 à 500 ft
< 800m
< 200 ft
Symboles :   Orages  Brouillard  Fortes neiges  Fortes précipitations  Vent > 20 kt
SIGMETs :   Divers  Orages  Givrage  Turbulence  Onde Orograph.  Cendres Volcan.







- Altitude de l'aérodrome : 779 ft
- Code IATA : CMF
- Voir les cartes d'approche


LFLB - Chambery / Aix-Les-Bains

DERNIER METAR :
  • 180830Z AUTO VRB01KT 8000 NSC 02/02 Q1024 NOSIG

METARs EXPIRÉS :
  • 180800Z AUTO 13002KT 5000 BR NSC 01/00 Q1024 NOSIG
  • 180730Z AUTO 15003KT 5000 BR NSC M02/M03 Q1024 NOSIG
  • 180700Z AUTO 16002KT 4100 BR NSC M03/M03 Q1024 BECMG 9999 NSW
  • 180630Z AUTO 16003KT 3700 0550 R18/3800D R36/3800U BCFG NSC M02/M03 Q1024 BECMG 9999 NSW
  • 180600Z AUTO VRB02KT 3700 BR NSC M02/M03 Q1024 BECMG 9999 NSW

TAF TAF LFLB
Valide du 18 à 06h jusqu'au 19 à 06h UTC


180500Z 1806/1906 VRB02KT 4000 BR NSC
BECMG 1806/1809 CAVOK
PROB40 1812/1816 36006KT
TEMPO 1902/1906 2500 BR
Pas de NOTAMs connus pour ce terrain.



MET'MAP, la Météo Aéronautique d'un coup d'oeil ! - Copyright ORBIFLY Décembre 2007 - Disclaimer

ORBIFLY MET'MAP TEAM :

Programmation & Développement : Alexandra Zaïnal
Conception & Développement : Baudouin d'Aumeries
Co-Programmation & Développement : Marc-Olivier Méhu
Soutien technique & logistique : Manuel Goepfert

Contact : metmap@orbifly.com




SOURCES & CREDITS :

   NOAA